Planet Ace — 3EYF9 — position and weather

sailwx.info

Track history (hours):
 
Tides and Currents Weather Stations Pressure Air Temp Water Temp Dewpoint Dewpoint Depression Visibility Wind Speed Wind Dir Waves Ship Positions

Planet Ace

Last reported at 2015-Mar-27 16:33 UTC. Time now 2015-Mar-27 17:24 UTC.
Position N 52°28' E 004°36'.

Length 188 m; beam 28.2 m.

Type: Cargo ship. MMSI: 352168000.

Date/timePositionNaut miles runAvg speedWind from/ knotsBaromVisibWave heightAir tempDewpointWater temp
2015-Mar-27 16:33N 52°28' E 004°36'6 6.3
2015-Mar-27 15:33N 52°28' E 004°25'1 1.1
2015-Mar-27 14:33N 52°27' E 004°24'1 1.0
2015-Mar-27 13:33N 52°26' E 004°25'3 2.6
2015-Mar-27 12:33N 52°29' E 004°24'5 4.6
2015-Mar-27 11:33N 52°28' E 004°17'9 8.6
2015-Mar-27 10:33N 52°34' E 004°06'8 6.4
2015-Mar-27 09:17N 52°40' E 004°15'2 2.1
2015-Mar-27 08:33N 52°40' E 004°12'1 1.0
2015-Mar-27 07:33N 52°40' E 004°14'0 0.3
2015-Mar-27 06:33N 52°40' E 004°14'2 2.1
2015-Mar-27 05:33N 52°40' E 004°11'7 7.0
2015-Mar-27 04:33N 52°36' E 004°20'2 2.0
2015-Mar-27 03:33N 52°37' E 004°17'2 2.1
2015-Mar-27 02:33N 52°37' E 004°14'2 2.1
2015-Mar-27 01:33N 52°39' E 004°11'5 5.4
2015-Mar-27 00:33N 52°39' E 004°20'2 1.9
2015-Mar-26 23:33N 52°39' E 004°17'2 2.1
2015-Mar-26 22:33N 52°39' E 004°14'2 1.7
2015-Mar-26 21:33N 52°40' E 004°11'4 3.6
2015-Mar-26 20:33N 52°42' E 004°16'3 2.7
2015-Mar-26 19:33N 52°40' E 004°12'2 2.3
2015-Mar-26 18:33N 52°42' E 004°14'3 2.6
2015-Mar-26 17:33N 52°40' E 004°12'2 2.4
2015-Mar-26 16:33N 52°39' E 004°16'2 2.2
2015-Mar-26 15:33N 52°39' E 004°12'5 4.9
2015-Mar-26 14:34N 52°38' E 004°20'2 2.0
2015-Mar-26 13:33N 52°37' E 004°17'2 1.8
2015-Mar-26 12:33N 52°37' E 004°14'2 2.0
2015-Mar-26 11:33N 52°37' E 004°10'3 3.4
2015-Mar-26 10:33N 52°37' E 004°05'9 9.0
2015-Mar-26 09:33N 52°44' E 003°56'22873.6
2015-Mar-26 06:27N 54°59' W 001°17'14344.5
2015-Mar-26 03:15N 53°43' E 002°10'4614.7
2015-Mar-26 00:06N 54°08' E 001°05'915.2
2015-Mar-25 23:30N 54°13' E 000°51'1415.2
2015-Mar-25 22:33N 54°21' E 000°31'1515.5
2015-Mar-25 21:33N 54°29' E 000°09'1615.8
2015-Mar-25 20:33N 54°37' W 000°15'1616.0
2015-Mar-25 19:34N 54°45' W 000°39'1615.7
2015-Mar-25 18:33N 54°53' W 001°02'1514.0
2015-Mar-25 17:31N 55°01' W 001°24'2 0.0
2015-Mar-23 15:33N 55°01' W 001°21'3 2.9
2015-Mar-23 14:33N 55°01' W 001°16'1312.8
2015-Mar-23 13:33N 54°52' W 001°00'1515.3
2015-Mar-23 12:33N 54°41' W 000°42'1616.0
2015-Mar-23 11:33N 54°29' W 000°23'1616.3
2015-Mar-23 10:33N 54°17' W 000°05'1616.0
2015-Mar-23 09:33N 54°04' E 000°12'1515.4
2015-Mar-23 08:33N 53°50' E 000°20'1414.4
2015-Mar-23 07:33N 53°35' E 000°19'8 8.4
2015-Mar-23 06:34N 53°34' E 000°05'5 5.1
2015-Mar-23 05:31N 53°35' W 000°04'0 0.0
2015-Mar-23 04:31N 53°35' W 000°04'0 0.0
2015-Mar-23 03:30N 53°35' W 000°04'0 0.0
2015-Mar-23 02:33N 53°35' W 000°04'0 0.0
2015-Mar-23 01:33N 53°35' W 000°04'0 0.0
2015-Mar-23 00:33N 53°35' W 000°04'0 0.0
2015-Mar-22 23:33N 53°35' W 000°04'0 0.0
2015-Mar-22 22:33N 53°35' W 000°04'0 0.0
2015-Mar-22 21:33N 53°35' W 000°04'0 0.0
2015-Mar-22 20:33N 53°35' W 000°04'0 0.0
2015-Mar-22 19:33N 53°35' W 000°04'1 0.5
2015-Mar-22 18:34N 53°35' W 000°03'9 9.3
2015-Mar-22 17:33N 53°33' E 000°12'7 7.1
2015-Mar-22 16:33N 53°34' E 000°24'2 2.1
2015-Mar-22 15:32N 53°36' E 000°25'0 0.2
2015-Mar-22 14:32N 53°37' E 000°25'0 0.0
2015-Mar-22 13:32N 53°37' E 000°25'0 0.0
2015-Mar-22 12:23N 53°37' E 000°25'0 0.0
2015-Mar-22 11:29N 53°37' E 000°25'0 0.0
2015-Mar-22 10:32N 53°37' E 000°25'0 0.0
2015-Mar-22 09:32N 53°37' E 000°25'0 0.1
2015-Mar-22 08:32N 53°37' E 000°25'8 7.8
2015-Mar-22 07:33N 53°34' E 000°37'2712.3
2015-Mar-22 05:20N 53°17' E 001°13'1214.8
2015-Mar-22 04:33N 53°07' E 001°23'1717.2
2015-Mar-22 03:33N 52°53' E 001°41'1717.3
2015-Mar-22 02:33N 52°42' E 002°03'1716.7
2015-Mar-22 01:33N 52°26' E 002°01'1515.3
2015-Mar-22 00:33N 52°11' E 001°55'1313.4
2015-Mar-21 23:33N 51°58' E 001°50'1211.9
2015-Mar-21 22:33N 51°46' E 001°49'1110.6
2015-Mar-21 21:33N 51°35' E 001°46'1111.4
2015-Mar-21 20:34N 51°28' E 001°33'8 8.4
2015-Mar-21 19:33N 51°29' E 001°19'1111.1
2015-Mar-21 18:33N 51°29' E 001°02'10 9.9
2015-Mar-21 17:33N 51°27' E 000°46'2 1.4
2015-Mar-21 16:30N 51°26' E 000°44'0 0.0
2015-Mar-21 15:33N 51°26' E 000°44'0 0.0
2015-Mar-21 14:33N 51°26' E 000°44'0 0.0
2015-Mar-21 13:33N 51°26' E 000°44'0 0.0
2015-Mar-21 12:33N 51°26' E 000°44'0 0.0
2015-Mar-21 11:33N 51°26' E 000°44'1 1.2
2015-Mar-21 10:34N 51°27' E 000°45'6 6.3
2015-Mar-21 09:34N 51°29' E 000°55'9 9.1
2015-Mar-21 08:33N 51°29' E 001°10'1110.8
2015-Mar-21 07:33N 51°27' E 001°27'3 3.0
2015-Mar-21 06:33N 51°29' E 001°31'2 1.9
2015-Mar-21 05:32N 51°31' E 001°30'0 0.0
2015-Mar-21 04:32N 51°31' E 001°30'0 0.0
2015-Mar-21 03:29N 51°31' E 001°30'0 0.0
2015-Mar-21 02:32N 51°31' E 001°30'0 0.1
2015-Mar-21 01:32N 51°31' E 001°30'0 0.1
2015-Mar-21 00:32N 51°31' E 001°30'0 0.0
2015-Mar-20 23:32N 51°31' E 001°30'0 0.4
2015-Mar-20 22:33N 51°30' E 001°30'1413.7
2015-Mar-20 21:33N 51°17' E 001°37'1110.9
2015-Mar-20 20:34N 51°07' E 001°41'1111.1
2015-Mar-20 19:34N 50°57' E 001°31'1211.4
2015-Mar-20 18:31N 50°46' E 001°24'1111.9
2015-Mar-20 17:33N 50°37' E 001°14'10513.2
2015-Mar-20 09:33N 50°21' W 001°29'5317.7
2015-Mar-20 06:33N 50°23' W 002°52'1615.5
2015-Mar-20 05:33N 50°24' W 003°17'8 7.9
2015-Mar-20 04:33N 50°19' W 003°26'402 8.7
2015-Mar-18 06:04N 43°41' W 004°52'915.2
2015-Mar-18 05:30N 43°42' W 005°04'1415.2
2015-Mar-18 04:33N 43°44' W 005°23'1514.9
2015-Mar-18 03:33N 43°46' W 005°44'1514.6
2015-Mar-18 02:31N 43°48' W 006°05'  
Track history (hours):
 
Tides and Currents Weather Stations Pressure Air Temp Water Temp Dewpoint Dewpoint Depression Visibility Wind Speed Wind Dir Waves Ship Positions

Planet Ace

Last reported at 2015-Mar-27 16:33 UTC. Time now 2015-Mar-27 17:24 UTC.
Position N 52°28' E 004°36'.

Length 188 m; beam 28.2 m.

Type: Cargo ship. MMSI: 352168000.

Date/timePositionNaut miles runAvg speedWind from/ knotsBaromVisibWave heightAir tempDewpointWater temp
2015-Mar-27 16:33N 52°28' E 004°36'6 6.3
2015-Mar-27 15:33N 52°28' E 004°25'1 1.1
2015-Mar-27 14:33N 52°27' E 004°24'1 1.0
2015-Mar-27 13:33N 52°26' E 004°25'3 2.6
2015-Mar-27 12:33N 52°29' E 004°24'5 4.6
2015-Mar-27 11:33N 52°28' E 004°17'9 8.6
2015-Mar-27 10:33N 52°34' E 004°06'8 6.4
2015-Mar-27 09:17N 52°40' E 004°15'2 2.1
2015-Mar-27 08:33N 52°40' E 004°12'1 1.0
2015-Mar-27 07:33N 52°40' E 004°14'0 0.3
2015-Mar-27 06:33N 52°40' E 004°14'2 2.1
2015-Mar-27 05:33N 52°40' E 004°11'7 7.0
2015-Mar-27 04:33N 52°36' E 004°20'2 2.0
2015-Mar-27 03:33N 52°37' E 004°17'2 2.1
2015-Mar-27 02:33N 52°37' E 004°14'2 2.1
2015-Mar-27 01:33N 52°39' E 004°11'5 5.4
2015-Mar-27 00:33N 52°39' E 004°20'2 1.9
2015-Mar-26 23:33N 52°39' E 004°17'2 2.1
2015-Mar-26 22:33N 52°39' E 004°14'2 1.7
2015-Mar-26 21:33N 52°40' E 004°11'4 3.6
2015-Mar-26 20:33N 52°42' E 004°16'3 2.7
2015-Mar-26 19:33N 52°40' E 004°12'2 2.3
2015-Mar-26 18:33N 52°42' E 004°14'3 2.6
2015-Mar-26 17:33N 52°40' E 004°12'2 2.4
2015-Mar-26 16:33N 52°39' E 004°16'2 2.2
2015-Mar-26 15:33N 52°39' E 004°12'5 4.9
2015-Mar-26 14:34N 52°38' E 004°20'2 2.0
2015-Mar-26 13:33N 52°37' E 004°17'2 1.8
2015-Mar-26 12:33N 52°37' E 004°14'2 2.0
2015-Mar-26 11:33N 52°37' E 004°10'3 3.4
2015-Mar-26 10:33N 52°37' E 004°05'9 9.0
2015-Mar-26 09:33N 52°44' E 003°56'22873.6
2015-Mar-26 06:27N 54°59' W 001°17'14344.5
2015-Mar-26 03:15N 53°43' E 002°10'4614.7
2015-Mar-26 00:06N 54°08' E 001°05'915.2
2015-Mar-25 23:30N 54°13' E 000°51'1415.2
2015-Mar-25 22:33N 54°21' E 000°31'1515.5
2015-Mar-25 21:33N 54°29' E 000°09'1615.8
2015-Mar-25 20:33N 54°37' W 000°15'1616.0
2015-Mar-25 19:34N 54°45' W 000°39'1615.7
2015-Mar-25 18:33N 54°53' W 001°02'1514.0
2015-Mar-25 17:31N 55°01' W 001°24'2 0.0
2015-Mar-23 15:33N 55°01' W 001°21'3 2.9
2015-Mar-23 14:33N 55°01' W 001°16'1312.8
2015-Mar-23 13:33N 54°52' W 001°00'1515.3
2015-Mar-23 12:33N 54°41' W 000°42'1616.0
2015-Mar-23 11:33N 54°29' W 000°23'1616.3
2015-Mar-23 10:33N 54°17' W 000°05'1616.0
2015-Mar-23 09:33N 54°04' E 000°12'1515.4
2015-Mar-23 08:33N 53°50' E 000°20'1414.4
2015-Mar-23 07:33N 53°35' E 000°19'8 8.4
2015-Mar-23 06:34N 53°34' E 000°05'5 5.1
2015-Mar-23 05:31N 53°35' W 000°04'0 0.0
2015-Mar-23 04:31N 53°35' W 000°04'0 0.0
2015-Mar-23 03:30N 53°35' W 000°04'0 0.0
2015-Mar-23 02:33N 53°35' W 000°04'0 0.0
2015-Mar-23 01:33N 53°35' W 000°04'0 0.0
2015-Mar-23 00:33N 53°35' W 000°04'0 0.0
2015-Mar-22 23:33N 53°35' W 000°04'0 0.0
2015-Mar-22 22:33N 53°35' W 000°04'0 0.0
2015-Mar-22 21:33N 53°35' W 000°04'0 0.0
2015-Mar-22 20:33N 53°35' W 000°04'0 0.0
2015-Mar-22 19:33N 53°35' W 000°04'1 0.5
2015-Mar-22 18:34N 53°35' W 000°03'9 9.3
2015-Mar-22 17:33N 53°33' E 000°12'7 7.1
2015-Mar-22 16:33N 53°34' E 000°24'2 2.1
2015-Mar-22 15:32N 53°36' E 000°25'0 0.2
2015-Mar-22 14:32N 53°37' E 000°25'0 0.0
2015-Mar-22 13:32N 53°37' E 000°25'0 0.0
2015-Mar-22 12:23N 53°37' E 000°25'0 0.0
2015-Mar-22 11:29N 53°37' E 000°25'0 0.0
2015-Mar-22 10:32N 53°37' E 000°25'0 0.0
2015-Mar-22 09:32N 53°37' E 000°25'0 0.1
2015-Mar-22 08:32N 53°37' E 000°25'8 7.8
2015-Mar-22 07:33N 53°34' E 000°37'2712.3
2015-Mar-22 05:20N 53°17' E 001°13'1214.8
2015-Mar-22 04:33N 53°07' E 001°23'1717.2
2015-Mar-22 03:33N 52°53' E 001°41'1717.3
2015-Mar-22 02:33N 52°42' E 002°03'1716.7
2015-Mar-22 01:33N 52°26' E 002°01'1515.3
2015-Mar-22 00:33N 52°11' E 001°55'1313.4
2015-Mar-21 23:33N 51°58' E 001°50'1211.9
2015-Mar-21 22:33N 51°46' E 001°49'1110.6
2015-Mar-21 21:33N 51°35' E 001°46'1111.4
2015-Mar-21 20:34N 51°28' E 001°33'8 8.4
2015-Mar-21 19:33N 51°29' E 001°19'1111.1
2015-Mar-21 18:33N 51°29' E 001°02'10 9.9
2015-Mar-21 17:33N 51°27' E 000°46'2 1.4
2015-Mar-21 16:30N 51°26' E 000°44'0 0.0
2015-Mar-21 15:33N 51°26' E 000°44'0 0.0
2015-Mar-21 14:33N 51°26' E 000°44'0 0.0
2015-Mar-21 13:33N 51°26' E 000°44'0 0.0
2015-Mar-21 12:33N 51°26' E 000°44'0 0.0
2015-Mar-21 11:33N 51°26' E 000°44'1 1.2
2015-Mar-21 10:34N 51°27' E 000°45'6 6.3
2015-Mar-21 09:34N 51°29' E 000°55'9 9.1
2015-Mar-21 08:33N 51°29' E 001°10'1110.8
2015-Mar-21 07:33N 51°27' E 001°27'3 3.0
2015-Mar-21 06:33N 51°29' E 001°31'2 1.9
2015-Mar-21 05:32N 51°31' E 001°30'0 0.0
2015-Mar-21 04:32N 51°31' E 001°30'0 0.0
2015-Mar-21 03:29N 51°31' E 001°30'0 0.0
2015-Mar-21 02:32N 51°31' E 001°30'0 0.1
2015-Mar-21 01:32N 51°31' E 001°30'0 0.1
2015-Mar-21 00:32N 51°31' E 001°30'0 0.0
2015-Mar-20 23:32N 51°31' E 001°30'0 0.4
2015-Mar-20 22:33N 51°30' E 001°30'1413.7
2015-Mar-20 21:33N 51°17' E 001°37'1110.9
2015-Mar-20 20:34N 51°07' E 001°41'1111.1
2015-Mar-20 19:34N 50°57' E 001°31'1211.4
2015-Mar-20 18:31N 50°46' E 001°24'1111.9
2015-Mar-20 17:33N 50°37' E 001°14'10513.2
2015-Mar-20 09:33N 50°21' W 001°29'5317.7
2015-Mar-20 06:33N 50°23' W 002°52'1615.5
2015-Mar-20 05:33N 50°24' W 003°17'8 7.9
2015-Mar-20 04:33N 50°19' W 003°26'402 8.7
2015-Mar-18 06:04N 43°41' W 004°52'915.2
2015-Mar-18 05:30N 43°42' W 005°04'1415.2
2015-Mar-18 04:33N 43°44' W 005°23'1514.9
2015-Mar-18 03:33N 43°46' W 005°44'1514.6
2015-Mar-18 02:31N 43°48' W 006°05'  

Dump ship's entire track history